createdAt,value
2018-05-23T00:00:07.656Z,63.57
2018-05-23T00:01:07.564Z,63.67
2018-05-23T00:02:07.461Z,63.16
2018-05-23T00:03:07.395Z,64.12
2018-05-23T00:04:07.269Z,63.73
2018-05-23T00:05:07.177Z,64.12
2018-05-23T00:06:07.087Z,64.05
2018-05-23T00:07:06.986Z,64.05
2018-05-23T00:08:06.891Z,64.50
2018-05-23T00:09:06.788Z,64.15
2018-05-23T00:10:06.698Z,63.83
2018-05-23T00:11:06.595Z,64.12
2018-05-23T00:12:06.503Z,64.31
2018-05-23T00:13:06.401Z,64.31
2018-05-23T00:14:06.316Z,64.53
2018-05-23T00:15:06.218Z,64.53
2018-05-23T00:16:06.115Z,64.43
2018-05-23T00:17:06.026Z,64.40
2018-05-23T00:18:05.923Z,64.31
2018-05-23T00:19:05.830Z,64.25
2018-05-23T00:20:05.727Z,64.15
2018-05-23T00:21:05.637Z,64.40
2018-05-23T00:22:05.533Z,64.43
2018-05-23T00:23:05.442Z,64.63
2018-05-23T00:24:05.341Z,64.69
2018-05-23T00:25:05.249Z,64.50
2018-05-23T00:26:05.158Z,64.79
2018-05-23T00:27:05.054Z,65.11
2018-05-23T00:28:04.964Z,65.08
2018-05-23T00:29:04.860Z,64.98
2018-05-23T00:30:04.768Z,64.98
2018-05-23T00:31:04.666Z,64.98
2018-05-23T00:32:04.575Z,64.98
2018-05-23T00:33:04.472Z,65.46
2018-05-23T00:34:04.381Z,65.55
2018-05-23T00:35:04.291Z,66.03
2018-05-23T00:36:04.194Z,65.84
2018-05-23T00:37:04.114Z,65.75
2018-05-23T00:38:03.993Z,65.65
2018-05-23T00:39:03.902Z,66.48
2018-05-23T00:40:03.799Z,66.71
2018-05-23T00:41:03.708Z,66.48
2018-05-23T00:42:03.607Z,66.67
2018-05-23T00:43:03.514Z,67.05
2018-05-23T00:44:03.411Z,66.86
2018-05-23T00:45:03.318Z,67.05
2018-05-23T00:46:03.229Z,66.77
2018-05-23T00:47:03.127Z,66.77
2018-05-23T00:48:03.036Z,66.58
2018-05-23T00:49:02.931Z,66.77
2018-05-23T00:50:02.841Z,66.96
2018-05-23T00:51:02.738Z,67.05
2018-05-23T00:52:02.646Z,67.34
2018-05-23T00:53:02.793Z,67.25
2018-05-23T00:54:02.453Z,67.91
2018-05-23T00:55:02.350Z,67.25
2018-05-23T00:56:02.271Z,67.15
2018-05-23T00:57:02.156Z,68.01
2018-05-23T00:58:02.064Z,67.15
2018-05-23T00:59:01.974Z,67.34
2018-05-23T01:00:01.870Z,67.66
2018-05-23T01:01:01.780Z,67.25
2018-05-23T01:02:01.677Z,67.34
2018-05-23T01:03:01.885Z,67.05
2018-05-23T01:04:01.482Z,67.44
2018-05-23T01:05:01.395Z,67.63
2018-05-23T01:06:01.289Z,67.72
2018-05-23T01:07:01.196Z,67.72
2018-05-23T01:08:01.093Z,67.44
2018-05-23T01:09:01.005Z,67.82
2018-05-23T01:10:00.901Z,68.30
2018-05-23T01:11:00.811Z,68.01
2018-05-23T01:12:00.706Z,68.49
2018-05-23T01:13:00.614Z,68.01
2018-05-23T01:14:00.523Z,68.01
2018-05-23T01:15:00.420Z,68.40
2018-05-23T01:16:00.331Z,68.01
2018-05-23T01:17:00.227Z,68.40
2018-05-23T01:18:00.134Z,68.21
2018-05-23T01:19:00.032Z,68.97
2018-05-23T01:19:59.944Z,69.13
2018-05-23T01:20:59.839Z,69.17
2018-05-23T01:21:59.749Z,68.94
2018-05-23T01:22:59.943Z,69.23
2018-05-23T01:23:59.554Z,69.89
2018-05-23T01:24:59.451Z,69.13
2018-05-23T01:25:59.359Z,69.03
2018-05-23T01:26:59.255Z,69.03
2018-05-23T01:27:59.165Z,70.37
2018-05-23T01:28:59.061Z,70.56
2018-05-23T01:29:58.970Z,70.56
2018-05-23T01:30:58.869Z,70.37
2018-05-23T01:31:58.777Z,70.85
2018-05-23T01:32:58.924Z,71.04
2018-05-23T01:33:58.594Z,71.23
2018-05-23T01:34:58.493Z,70.66
2018-05-23T01:35:58.396Z,70.95
2018-05-23T01:36:58.297Z,70.85
2018-05-23T01:37:58.195Z,71.52
2018-05-23T01:38:58.103Z,71.48
2018-05-23T01:39:58.001Z,70.85
2018-05-23T01:40:57.908Z,70.91
2018-05-23T01:41:57.810Z,71.42
2018-05-23T01:42:57.715Z,71.33
2018-05-23T01:43:57.613Z,71.14
2018-05-23T01:44:57.520Z,70.76
2018-05-23T01:45:57.417Z,70.85
2018-05-23T01:46:57.327Z,71.33
2018-05-23T01:47:57.225Z,72.00
2018-05-23T01:48:57.132Z,71.42
2018-05-23T01:49:57.029Z,71.48
2018-05-23T01:50:56.939Z,71.77
2018-05-23T01:51:56.836Z,71.58
2018-05-23T01:52:56.994Z,71.58
2018-05-23T01:53:56.641Z,71.68
2018-05-23T01:54:56.554Z,71.97
2018-05-23T01:55:56.448Z,72.06
2018-05-23T01:56:56.356Z,72.83
2018-05-23T01:57:56.253Z,72.16
2018-05-23T01:58:56.162Z,72.83
2018-05-23T01:59:56.059Z,72.73
2018-05-23T02:00:55.981Z,72.83
2018-05-23T02:01:55.864Z,73.02
2018-05-23T02:02:55.774Z,72.73
2018-05-23T02:03:55.670Z,73.50
2018-05-23T02:04:55.580Z,73.40
2018-05-23T02:05:55.477Z,73.55
2018-05-23T02:06:55.386Z,73.97
2018-05-23T02:07:55.282Z,73.36
2018-05-23T02:08:55.191Z,73.94
2018-05-23T02:09:55.088Z,74.22
2018-05-23T02:10:54.998Z,74.13
2018-05-23T02:11:54.894Z,74.32
2018-05-23T02:12:54.803Z,74.51
2018-05-23T02:13:54.699Z,74.80
2018-05-23T02:14:54.609Z,74.80
2018-05-23T02:15:54.505Z,74.80
2018-05-23T02:16:54.414Z,75.18
2018-05-23T02:17:54.310Z,75.47
2018-05-23T02:18:54.224Z,75.95
2018-05-23T02:19:54.118Z,75.81
2018-05-23T02:20:54.026Z,76.39
2018-05-23T02:21:53.923Z,76.86
2018-05-23T02:22:53.832Z,77.15
2018-05-23T02:23:53.734Z,77.15
2018-05-23T02:24:53.637Z,77.92
2018-05-23T02:25:53.535Z,77.92
2018-05-23T02:26:53.445Z,78.11
2018-05-23T02:27:53.341Z,78.49
2018-05-23T02:28:53.249Z,78.30
2018-05-23T02:29:53.148Z,78.39
2018-05-23T02:30:53.045Z,78.58
2018-05-23T02:31:52.955Z,78.49
2018-05-23T02:32:52.849Z,78.78
2018-05-23T02:33:52.758Z,78.78
2018-05-23T02:34:52.654Z,78.39
2018-05-23T02:35:52.564Z,78.58
2018-05-23T02:36:52.461Z,79.16
2018-05-23T02:37:52.370Z,78.93
2018-05-23T02:38:52.266Z,79.79
2018-05-23T02:39:52.177Z,79.98
2018-05-23T02:40:52.073Z,79.98
2018-05-23T02:41:51.981Z,80.07
2018-05-23T02:42:51.878Z,79.88
2018-05-23T02:43:51.789Z,80.07
2018-05-23T02:44:51.685Z,79.60
2018-05-23T02:45:51.593Z,79.98
2018-05-23T02:46:51.489Z,79.98
2018-05-23T02:47:51.387Z,79.98
2018-05-23T02:48:51.296Z,80.07
2018-05-23T02:49:51.194Z,79.88
2018-05-23T02:50:51.105Z,79.79
2018-05-23T02:51:50.999Z,80.17
2018-05-23T02:52:51.209Z,80.27
2018-05-23T02:53:50.805Z,80.84
2018-05-23T02:54:50.713Z,81.32
2018-05-23T02:55:50.715Z,81.51
2018-05-23T02:56:50.520Z,81.32
2018-05-23T02:57:50.417Z,81.13
2018-05-23T02:58:50.325Z,81.79
2018-05-23T02:59:50.222Z,80.84
2018-05-23T03:00:50.119Z,81.89
2018-05-23T03:01:50.029Z,81.85
2018-05-23T03:02:49.931Z,82.04
2018-05-23T03:03:49.833Z,81.66
2018-05-23T03:04:49.731Z,81.85
2018-05-23T03:05:49.641Z,82.04
2018-05-23T03:06:49.536Z,82.32
2018-05-23T03:07:49.446Z,82.42
2018-05-23T03:08:49.355Z,82.71
2018-05-23T03:09:49.251Z,82.42
2018-05-23T03:10:49.149Z,82.52
2018-05-23T03:11:49.045Z,82.61
2018-05-23T03:12:48.953Z,82.90
2018-05-23T03:13:48.850Z,82.71
2018-05-23T03:14:48.760Z,82.32
2018-05-23T03:15:48.656Z,82.81
2018-05-23T03:16:48.566Z,82.42
2018-05-23T03:17:48.762Z,82.61
2018-05-23T03:18:48.371Z,82.23
2018-05-23T03:19:48.268Z,82.61
2018-05-23T03:20:48.177Z,82.81
2018-05-23T03:21:48.079Z,82.42
2018-05-23T03:22:47.970Z,83.00
2018-05-23T03:23:47.881Z,83.09
2018-05-23T03:24:47.780Z,82.84
2018-05-23T03:25:47.687Z,82.18
2018-05-23T03:26:47.587Z,81.99
2018-05-23T03:27:47.743Z,82.65
2018-05-23T03:28:47.390Z,82.46
2018-05-23T03:29:47.297Z,82.42
2018-05-23T03:30:47.207Z,82.23
2018-05-23T03:31:47.091Z,82.56
2018-05-23T03:32:47.008Z,82.94
2018-05-23T03:33:46.909Z,82.28
2018-05-23T03:34:46.806Z,82.18
2018-05-23T03:35:46.703Z,82.08
2018-05-23T03:36:46.613Z,82.28
2018-05-23T03:37:46.509Z,82.18
2018-05-23T03:38:46.418Z,82.46
2018-05-23T03:39:46.316Z,82.46
2018-05-23T03:40:46.213Z,82.56
2018-05-23T03:41:46.123Z,82.37
2018-05-23T03:42:46.018Z,81.89
2018-05-23T03:43:45.926Z,80.98
2018-05-23T03:44:45.823Z,80.88
2018-05-23T03:45:45.733Z,81.07
2018-05-23T03:46:45.635Z,80.98
2018-05-23T03:47:45.538Z,81.45
2018-05-23T03:48:45.475Z,81.26
2018-05-23T03:49:45.345Z,81.36
2018-05-23T03:50:45.241Z,80.98
2018-05-23T03:51:45.153Z,80.50
2018-05-23T03:52:45.047Z,79.73
2018-05-23T03:53:44.945Z,79.35
2018-05-23T03:54:44.853Z,79.29
2018-05-23T03:55:44.749Z,78.53
2018-05-23T03:56:44.658Z,78.81
2018-05-23T03:57:44.806Z,78.34
2018-05-23T03:58:44.465Z,77.67
2018-05-23T03:59:44.362Z,77.57
2018-05-23T04:00:44.269Z,78.14
2018-05-23T04:01:44.167Z,78.24
2018-05-23T04:02:44.078Z,77.76
2018-05-23T04:03:43.973Z,77.28
2018-05-23T04:04:43.902Z,77.00
2018-05-23T04:05:43.779Z,77.28
2018-05-23T04:06:43.688Z,77.48
2018-05-23T04:07:43.584Z,76.27
2018-05-23T04:08:43.493Z,76.75
2018-05-23T04:09:43.480Z,76.37
2018-05-23T04:10:43.304Z,75.64
2018-05-23T04:11:43.196Z,74.77
2018-05-23T04:12:43.110Z,74.77
2018-05-23T04:13:43.014Z,74.77
2018-05-23T04:14:42.911Z,74.49
2018-05-23T04:15:42.820Z,73.82
2018-05-23T04:16:42.716Z,73.76
2018-05-23T04:17:42.626Z,72.80
2018-05-23T04:18:42.525Z,73.38
2018-05-23T04:19:42.432Z,73.63
2018-05-23T04:20:42.332Z,73.09
2018-05-23T04:21:42.238Z,73.47
2018-05-23T04:22:42.136Z,72.99
2018-05-23T04:23:42.047Z,73.66
2018-05-23T04:24:41.942Z,73.57
2018-05-23T04:25:41.850Z,73.28
2018-05-23T04:26:41.773Z,73.19
2018-05-23T04:27:41.655Z,72.36
2018-05-23T04:28:41.566Z,71.40
2018-05-23T04:29:41.462Z,71.25
2018-05-23T04:30:41.371Z,69.36
2018-05-23T04:31:41.269Z,67.67
2018-05-23T04:32:41.178Z,66.64
2018-05-23T04:33:41.085Z,64.85
2018-05-23T04:34:40.984Z,63.60
2018-05-23T04:35:40.893Z,62.96
2018-05-23T04:36:40.800Z,62.23
2018-05-23T04:37:40.698Z,61.65
2018-05-23T04:38:40.607Z,60.72
2018-05-23T04:39:40.516Z,59.75
2018-05-23T04:40:40.413Z,59.94
2018-05-23T04:41:40.326Z,58.92
2018-05-23T04:42:40.232Z,58.24
2018-05-23T04:43:40.141Z,58.08
2018-05-23T04:44:40.037Z,57.50
2018-05-23T04:45:39.945Z,56.37
2018-05-23T04:46:39.856Z,56.57
2018-05-23T04:47:39.764Z,56.54
2018-05-23T04:48:39.723Z,57.02
2018-05-23T04:49:39.571Z,57.21
2018-05-23T04:50:39.483Z,57.05
2018-05-23T04:51:39.391Z,56.57
2018-05-23T04:52:39.297Z,56.27
2018-05-23T04:53:39.208Z,55.96
2018-05-23T04:54:39.105Z,55.70
2018-05-23T04:55:39.013Z,55.89
2018-05-23T04:56:38.925Z,55.99
2018-05-23T04:57:38.832Z,55.73
2018-05-23T04:58:38.742Z,55.31
2018-05-23T04:59:38.650Z,55.12
2018-05-23T05:00:38.560Z,54.86
2018-05-23T05:01:38.468Z,54.11
2018-05-23T05:02:38.380Z,53.25
2018-05-23T05:03:38.286Z,53.53
2018-05-23T05:04:38.184Z,52.98
2018-05-23T05:05:38.096Z,52.31
2018-05-23T05:06:38.001Z,52.62
2018-05-23T05:07:38.161Z,51.46
2018-05-23T05:08:37.820Z,51.59
2018-05-23T05:09:37.733Z,50.13
2018-05-23T05:10:37.638Z,49.97
2018-05-23T05:11:37.548Z,49.87
2018-05-23T05:12:37.458Z,48.93
2018-05-23T05:13:37.370Z,48.44
2018-05-23T05:14:37.275Z,47.89
2018-05-23T05:15:37.185Z,48.16
2018-05-23T05:16:37.094Z,47.77
2018-05-23T05:17:37.018Z,48.61
2018-05-23T05:18:36.928Z,48.81
2018-05-23T05:19:36.834Z,48.81
2018-05-23T05:20:36.743Z,48.25
2018-05-23T05:21:36.655Z,47.96
2018-05-23T05:22:36.862Z,48.16
2018-05-23T05:23:36.470Z,49.07
2018-05-23T05:24:36.380Z,49.49
2018-05-23T05:25:36.294Z,49.10
2018-05-23T05:26:36.198Z,48.64
2018-05-23T05:27:36.120Z,48.47
2018-05-23T05:28:36.035Z,47.50
2018-05-23T05:29:35.945Z,47.60
2018-05-23T05:30:35.847Z,47.60
2018-05-23T05:31:35.758Z,47.31
2018-05-23T05:32:35.667Z,47.21
2018-05-23T05:33:35.589Z,46.83
2018-05-23T05:34:35.496Z,47.21
2018-05-23T05:35:35.419Z,46.66
2018-05-23T05:36:35.315Z,45.98
2018-05-23T05:37:35.224Z,47.86
2018-05-23T05:38:35.220Z,47.31
2018-05-23T05:39:35.057Z,47.41
2018-05-23T05:40:34.971Z,47.41
2018-05-23T05:41:34.874Z,46.73
2018-05-23T05:42:35.033Z,45.90
2018-05-23T05:43:34.704Z,45.61
2018-05-23T05:44:34.613Z,45.15
2018-05-23T05:45:34.522Z,44.57
2018-05-23T05:46:34.432Z,44.57
2018-05-23T05:47:34.355Z,43.82
2018-05-23T05:48:34.262Z,43.79
2018-05-23T05:49:34.184Z,44.26
2018-05-23T05:50:34.093Z,45.20
2018-05-23T05:51:34.003Z,45.15
2018-05-23T05:52:33.913Z,44.96
2018-05-23T05:53:33.822Z,44.18
2018-05-23T05:54:33.748Z,43.70
2018-05-23T05:55:33.652Z,43.52
2018-05-23T05:56:33.561Z,42.75
2018-05-23T05:57:33.734Z,42.46
2018-05-23T05:58:33.395Z,43.82
2018-05-23T05:59:33.313Z,43.82
2018-05-23T06:00:33.222Z,42.85
2018-05-23T06:01:33.133Z,42.38
2018-05-23T06:02:33.041Z,42.09
2018-05-23T06:03:32.964Z,42.34
2018-05-23T06:04:32.872Z,44.81
2018-05-23T06:05:32.782Z,45.13
2018-05-23T06:06:32.702Z,44.67
2018-05-23T06:07:32.612Z,42.94
2018-05-23T06:08:32.534Z,41.89
2018-05-23T06:09:32.487Z,41.82
2018-05-23T06:10:32.353Z,41.43
2018-05-23T06:11:32.274Z,41.31
2018-05-23T06:12:32.182Z,41.86
2018-05-23T06:13:32.093Z,43.27
2018-05-23T06:14:32.014Z,43.48
2018-05-23T06:15:31.926Z,43.87
2018-05-23T06:16:31.844Z,43.13
2018-05-23T06:17:32.058Z,42.86
2018-05-23T06:18:31.670Z,42.55
2018-05-23T06:19:31.584Z,42.48
2018-05-23T06:20:31.497Z,41.63
2018-05-23T06:21:31.421Z,42.26
2018-05-23T06:22:31.325Z,43.37
2018-05-23T06:23:31.234Z,44.79
2018-05-23T06:24:31.156Z,46.25
2018-05-23T06:25:31.064Z,46.05
2018-05-23T06:26:30.986Z,46.63
2018-05-23T06:27:30.897Z,45.51
2018-05-23T06:28:30.805Z,43.62
2018-05-23T06:29:30.726Z,42.38
2018-05-23T06:30:30.734Z,41.92
2018-05-23T06:31:30.558Z,41.47
2018-05-23T06:32:30.466Z,39.84
2018-05-23T06:33:30.378Z,40.06
2018-05-23T06:34:30.298Z,38.50
2018-05-23T06:35:30.207Z,38.21
2018-05-23T06:36:30.129Z,38.56
2018-05-23T06:37:30.039Z,39.70
2018-05-23T06:38:29.971Z,39.84
2018-05-23T06:39:29.868Z,39.08
2018-05-23T06:40:29.778Z,38.77
2018-05-23T06:41:29.700Z,38.85
2018-05-23T06:42:29.610Z,38.75
2018-05-23T06:43:29.546Z,39.45
2018-05-23T06:44:29.440Z,39.75
2018-05-23T06:45:29.361Z,39.06
2018-05-23T06:46:29.271Z,38.60
2018-05-23T06:47:29.192Z,38.62
2018-05-23T06:48:29.102Z,37.93
2018-05-23T06:49:29.023Z,37.76
2018-05-23T06:50:28.937Z,37.24
2018-05-23T06:51:28.853Z,36.93
2018-05-23T06:52:28.776Z,37.92
2018-05-23T06:53:28.687Z,37.78
2018-05-23T06:54:28.608Z,39.69
2018-05-23T06:55:28.516Z,39.61
2018-05-23T06:56:28.437Z,38.98
2018-05-23T06:57:28.347Z,37.72
2018-05-23T06:58:28.269Z,38.56
2018-05-23T06:59:28.177Z,39.34
2018-05-23T07:00:28.099Z,39.14
2018-05-23T07:01:28.020Z,38.77
2018-05-23T07:02:28.180Z,37.92
2018-05-23T07:03:27.852Z,37.68
2018-05-23T07:04:27.761Z,38.29
2018-05-23T07:05:27.682Z,37.54
2018-05-23T07:06:27.591Z,37.62
2018-05-23T07:07:27.519Z,37.43
2018-05-23T07:08:27.423Z,37.80
2018-05-23T07:09:27.344Z,37.99
2018-05-23T07:10:27.265Z,37.72
2018-05-23T07:11:27.176Z,37.37
2018-05-23T07:12:27.097Z,36.87
2018-05-23T07:13:27.005Z,37.49
2018-05-23T07:14:26.930Z,38.77
2018-05-23T07:15:26.838Z,38.71
2018-05-23T07:16:26.759Z,40.61
2018-05-23T07:17:26.668Z,40.83
2018-05-23T07:18:26.593Z,40.46
2018-05-23T07:19:26.499Z,39.92
2018-05-23T07:20:26.423Z,38.89
2018-05-23T07:21:26.345Z,38.81
2018-05-23T07:22:26.250Z,37.29
2018-05-23T07:23:26.173Z,37.64
2018-05-23T07:24:26.082Z,37.70
2018-05-23T07:25:26.008Z,36.35
2018-05-23T07:26:25.912Z,36.20
2018-05-23T07:27:25.834Z,37.74
2018-05-23T07:28:25.745Z,37.77
2018-05-23T07:29:25.666Z,36.33
2018-05-23T07:30:25.588Z,35.63
2018-05-23T07:31:25.497Z,35.63
2018-05-23T07:32:25.417Z,35.53
2018-05-23T07:33:25.327Z,36.02
2018-05-23T07:34:25.249Z,36.88
2018-05-23T07:35:25.170Z,36.71
2018-05-23T07:36:25.080Z,36.90
2018-05-23T07:37:25.301Z,36.40
2018-05-23T07:38:24.935Z,36.12
2018-05-23T07:39:24.835Z,36.61
2018-05-23T07:40:24.755Z,36.24
2018-05-23T07:41:24.664Z,35.57
2018-05-23T07:42:24.587Z,35.53
2018-05-23T07:43:24.506Z,37.28
2018-05-23T07:44:24.415Z,39.84
2018-05-23T07:45:24.338Z,40.73
2018-05-23T07:46:24.260Z,40.58
2018-05-23T07:47:24.169Z,39.53
2018-05-23T07:48:24.089Z,38.95
2018-05-23T07:49:24.000Z,39.14
2018-05-23T07:50:23.924Z,38.73
2018-05-23T07:51:23.831Z,38.83
2018-05-23T07:52:23.756Z,39.14
2018-05-23T07:53:23.673Z,38.77
2018-05-23T07:54:23.585Z,37.52
2018-05-23T07:55:23.505Z,36.38
2018-05-23T07:56:23.413Z,36.96
2018-05-23T07:57:23.334Z,36.65
2018-05-23T07:58:23.256Z,37.24
2018-05-23T07:59:23.166Z,37.70
2018-05-23T08:00:23.089Z,38.77
2018-05-23T08:01:22.996Z,38.03
2018-05-23T08:02:23.168Z,36.98
2018-05-23T08:03:22.829Z,36.77
2018-05-23T08:04:22.738Z,37.59
2018-05-23T08:05:22.658Z,38.64
2018-05-23T08:06:22.569Z,38.93
2018-05-23T08:07:22.497Z,39.01
2018-05-23T08:08:22.399Z,38.93
2018-05-23T08:09:22.321Z,38.65
2018-05-23T08:10:22.232Z,38.83
2018-05-23T08:11:22.140Z,38.75
2018-05-23T08:12:22.060Z,39.16
2018-05-23T08:13:21.970Z,38.85
2018-05-23T08:14:21.884Z,40.23
2018-05-23T08:15:21.800Z,41.52
2018-05-23T08:16:21.712Z,42.86
2018-05-23T08:17:21.868Z,42.57
2018-05-23T08:18:21.529Z,43.44
2018-05-23T08:19:21.450Z,43.71
2018-05-23T08:20:21.359Z,44.67
2018-05-23T08:21:21.270Z,44.48
2018-05-23T08:22:21.177Z,44.77
2018-05-23T08:23:21.087Z,44.60
2018-05-23T08:24:21.086Z,44.19
2018-05-23T08:25:20.917Z,45.06
2018-05-23T08:26:20.832Z,44.31
2018-05-23T08:27:20.736Z,43.63
2018-05-23T08:28:20.646Z,44.02
2018-05-23T08:29:20.554Z,43.27
2018-05-23T08:30:20.464Z,42.65
2018-05-23T08:31:20.372Z,41.80
2018-05-23T08:32:20.284Z,40.95
2018-05-23T08:33:20.201Z,41.20
2018-05-23T08:34:20.112Z,40.26
2018-05-23T08:35:20.022Z,40.36
2018-05-23T08:36:20.025Z,38.95
2018-05-23T08:37:19.841Z,37.82
2018-05-23T08:38:19.749Z,37.72
2018-05-23T08:39:19.659Z,37.52
2018-05-23T08:40:19.567Z,36.87
2018-05-23T08:41:19.478Z,37.04
2018-05-23T08:42:19.386Z,36.75
2018-05-23T08:43:19.300Z,37.16
2018-05-23T08:44:19.204Z,35.99
2018-05-23T08:45:19.114Z,35.58
2018-05-23T08:46:19.036Z,36.99
2018-05-23T08:47:18.944Z,38.79
2018-05-23T08:48:18.854Z,39.90
2018-05-23T08:49:18.762Z,38.56
2018-05-23T08:50:18.672Z,38.32
2018-05-23T08:51:18.593Z,36.30
2018-05-23T08:52:18.503Z,35.73
2018-05-23T08:53:18.412Z,35.36
2018-05-23T08:54:18.334Z,34.40
2018-05-23T08:55:18.243Z,34.52
2018-05-23T08:56:18.153Z,35.08
2018-05-23T08:57:18.078Z,34.91
2018-05-23T08:58:17.985Z,34.69
2018-05-23T08:59:17.904Z,34.32
2018-05-23T09:00:17.814Z,33.83
2018-05-23T09:01:17.736Z,34.03
2018-05-23T09:02:17.644Z,33.73
2018-05-23T09:03:17.565Z,34.01
2018-05-23T09:04:17.476Z,35.16
2018-05-23T09:05:17.399Z,34.89
2018-05-23T09:06:17.306Z,34.34
2018-05-23T09:07:17.227Z,33.67
2018-05-23T09:08:17.154Z,33.83
2018-05-23T09:09:17.060Z,35.18
2018-05-23T09:10:16.980Z,33.93
2018-05-23T09:11:16.902Z,33.85
2018-05-23T09:12:16.819Z,32.31
2018-05-23T09:13:16.746Z,32.39
2018-05-23T09:14:16.654Z,32.21
2018-05-23T09:15:16.569Z,32.03
2018-05-23T09:16:16.486Z,32.52
2018-05-23T09:17:16.408Z,32.08
2018-05-23T09:18:16.329Z,33.46
2018-05-23T09:19:16.239Z,32.99
2018-05-23T09:20:16.160Z,32.50
2018-05-23T09:21:16.082Z,32.50
2018-05-23T09:22:16.003Z,31.56
2018-05-23T09:23:15.924Z,30.86
2018-05-23T09:24:15.836Z,32.03
2018-05-23T09:25:15.755Z,31.16
2018-05-23T09:26:15.678Z,31.36
2018-05-23T09:27:15.601Z,31.13
2018-05-23T09:28:15.522Z,33.72
2018-05-23T09:29:15.446Z,32.92
2018-05-23T09:30:15.364Z,33.72
2018-05-23T09:31:15.273Z,33.17
2018-05-23T09:32:15.236Z,32.31
2018-05-23T09:33:15.116Z,32.39
2018-05-23T09:34:15.039Z,33.15
2018-05-23T09:35:14.961Z,33.53
2018-05-23T09:36:14.881Z,33.43
2018-05-23T09:37:14.804Z,33.67
2018-05-23T09:38:14.724Z,32.29
2018-05-23T09:39:14.666Z,32.70
2018-05-23T09:40:14.559Z,31.84
2018-05-23T09:41:14.477Z,30.69
2018-05-23T09:42:14.400Z,30.55
2018-05-23T09:43:14.321Z,31.04
2018-05-23T09:44:14.242Z,30.86
2018-05-23T09:45:14.197Z,30.15
2018-05-23T09:46:14.087Z,30.54
2018-05-23T09:47:14.012Z,31.04
2018-05-23T09:48:13.933Z,31.13
2018-05-23T09:49:13.854Z,30.86
2018-05-23T09:50:13.773Z,31.70
2018-05-23T09:51:13.695Z,31.60
2018-05-23T09:52:13.619Z,31.60
2018-05-23T09:53:13.537Z,31.79
2018-05-23T09:54:13.460Z,31.96
2018-05-23T09:55:13.384Z,32.16
2018-05-23T09:56:13.304Z,32.34
2018-05-23T09:57:13.224Z,31.87
2018-05-23T09:58:13.147Z,32.42
2018-05-23T09:59:13.068Z,32.42
2018-05-23T10:00:13.061Z,32.53
2018-05-23T10:01:12.910Z,31.98
2018-05-23T10:02:12.835Z,30.91
2018-05-23T10:03:12.742Z,30.90
2018-05-23T10:04:12.663Z,31.95
2018-05-23T10:05:12.585Z,31.67
2018-05-23T10:06:12.506Z,30.80
2018-05-23T10:07:12.429Z,30.21
2018-05-23T10:08:12.350Z,30.41
2018-05-23T10:09:12.272Z,30.41
2018-05-23T10:10:12.193Z,30.75
2018-05-23T10:11:12.117Z,31.06
2018-05-23T10:12:12.037Z,31.17
2018-05-23T10:13:11.959Z,30.71
2018-05-23T10:14:11.886Z,30.71
2018-05-23T10:15:11.806Z,30.63
2018-05-23T10:16:11.737Z,29.90
2018-05-23T10:17:11.646Z,28.53
2018-05-23T10:18:11.580Z,29.17
2018-05-23T10:19:11.478Z,30.15
2018-05-23T10:20:11.399Z,30.34
2018-05-23T10:21:11.322Z,29.60
2018-05-23T10:22:11.242Z,31.16
2018-05-23T10:23:11.164Z,32.03
2018-05-23T10:24:11.087Z,32.32
2018-05-23T10:25:11.008Z,30.87
2018-05-23T10:26:10.941Z,31.07
2018-05-23T10:27:10.851Z,30.70
2018-05-23T10:28:10.772Z,29.83
2018-05-23T10:29:10.696Z,29.56
2018-05-23T10:30:10.616Z,28.78
2018-05-23T10:31:10.538Z,28.88
2018-05-23T10:32:10.459Z,29.07
2018-05-23T10:33:10.381Z,28.81
2018-05-23T10:34:10.302Z,27.86
2018-05-23T10:35:10.236Z,26.68
2018-05-23T10:36:10.158Z,25.82
2018-05-23T10:37:10.083Z,28.42
2018-05-23T10:38:10.001Z,27.86
2018-05-23T10:39:10.046Z,26.42
2018-05-23T10:40:09.845Z,26.12
2018-05-23T10:41:09.766Z,25.24
2018-05-23T10:42:09.687Z,24.85
2018-05-23T10:43:09.610Z,25.04
2018-05-23T10:44:09.545Z,26.12
2018-05-23T10:45:09.466Z,24.59
2018-05-23T10:46:09.460Z,23.63
2018-05-23T10:47:09.310Z,23.57
2018-05-23T10:48:09.234Z,23.21
2018-05-23T10:49:09.164Z,24.27
2018-05-23T10:50:09.087Z,24.96
2018-05-23T10:51:09.010Z,25.56
2018-05-23T10:52:08.999Z,24.29
2018-05-23T10:53:08.865Z,23.52
2018-05-23T10:54:08.792Z,23.91
2018-05-23T10:55:08.709Z,23.63
2018-05-23T10:56:08.631Z,22.67
2018-05-23T10:57:08.654Z,21.70
2018-05-23T10:58:08.484Z,21.50
2018-05-23T10:59:08.414Z,23.79
2018-05-23T11:00:08.337Z,24.97
2018-05-23T11:01:08.252Z,25.02
2018-05-23T11:02:08.187Z,27.25
2018-05-23T11:03:08.106Z,27.51
2018-05-23T11:04:08.029Z,28.58
2018-05-23T11:05:07.950Z,28.30
2018-05-23T11:06:07.883Z,27.55
2018-05-23T11:07:07.805Z,26.79
2018-05-23T11:08:07.729Z,25.27
2018-05-23T11:09:07.648Z,24.68
2018-05-23T11:10:07.570Z,23.81
2018-05-23T11:11:07.491Z,23.34
2018-05-23T11:12:07.494Z,23.16
2018-05-23T11:13:07.350Z,22.74
2018-05-23T11:14:07.269Z,23.12
2018-05-23T11:15:07.276Z,23.71
2018-05-23T11:16:07.113Z,23.41
2018-05-23T11:17:07.036Z,23.58
2018-05-23T11:18:06.959Z,25.79
2018-05-23T11:19:06.891Z,26.78
2018-05-23T11:20:06.812Z,26.82
2018-05-23T11:21:06.753Z,28.11
2018-05-23T11:22:06.656Z,26.95
2018-05-23T11:23:06.577Z,27.15
2018-05-23T11:24:06.500Z,28.19
2018-05-23T11:25:06.422Z,28.18
2018-05-23T11:26:06.356Z,28.74
2018-05-23T11:27:06.277Z,29.68
2018-05-23T11:28:06.199Z,31.03
2018-05-23T11:29:06.120Z,31.03
2018-05-23T11:30:06.045Z,32.26
2018-05-23T11:31:05.964Z,33.43
2018-05-23T11:32:05.954Z,32.55
2018-05-23T11:33:05.807Z,32.64
2018-05-23T11:34:05.720Z,33.90
2018-05-23T11:35:05.649Z,33.59
2018-05-23T11:36:05.563Z,33.88
2018-05-23T11:37:05.481Z,34.16
2018-05-23T11:38:05.404Z,34.35
2018-05-23T11:39:05.313Z,34.23
2018-05-23T11:40:05.237Z,35.01
2018-05-23T11:41:05.144Z,35.96
2018-05-23T11:42:05.066Z,35.77
2018-05-23T11:43:04.985Z,35.96
2018-05-23T11:44:04.896Z,35.86
2018-05-23T11:45:04.817Z,36.35
2018-05-23T11:46:04.727Z,35.19
2018-05-23T11:47:04.648Z,36.74
2018-05-23T11:48:04.557Z,35.86
2018-05-23T11:49:04.479Z,35.96
2018-05-23T11:50:04.387Z,35.38
2018-05-23T11:51:04.298Z,34.80
2018-05-23T11:52:04.221Z,35.59
2018-05-23T11:53:04.128Z,34.93
2018-05-23T11:54:04.049Z,33.23
2018-05-23T11:55:03.959Z,32.20
2018-05-23T11:56:03.868Z,30.85
2018-05-23T11:57:03.788Z,30.47
2018-05-23T11:58:03.699Z,30.38
2018-05-23T11:59:03.608Z,29.89
2018-05-23T12:00:03.531Z,30.18
2018-05-23T12:01:03.443Z,30.28
2018-05-23T12:02:03.360Z,30.94
2018-05-23T12:03:03.271Z,31.03
2018-05-23T12:04:03.179Z,30.33
2018-05-23T12:05:03.102Z,32.35
2018-05-23T12:06:03.013Z,32.17
2018-05-23T12:07:02.930Z,32.91
2018-05-23T12:08:02.852Z,33.57
2018-05-23T12:09:02.763Z,34.44
2018-05-23T12:10:02.684Z,35.11
2018-05-23T12:11:02.596Z,34.91
2018-05-23T12:12:02.514Z,34.72
2018-05-23T12:13:02.441Z,35.59
2018-05-23T12:14:02.350Z,35.49
2018-05-23T12:15:02.268Z,35.13
2018-05-23T12:16:02.189Z,34.83
2018-05-23T12:17:02.099Z,33.65
2018-05-23T12:18:02.021Z,34.62
2018-05-23T12:19:02.051Z,34.89
2018-05-23T12:20:01.852Z,35.38
2018-05-23T12:21:01.781Z,35.77
2018-05-23T12:22:01.682Z,35.96
2018-05-23T12:23:01.605Z,35.96
2018-05-23T12:24:01.513Z,35.77
2018-05-23T12:25:01.434Z,35.85
2018-05-23T12:26:01.345Z,35.48
2018-05-23T12:27:01.265Z,35.67
2018-05-23T12:28:01.177Z,36.16
2018-05-23T12:29:01.097Z,34.89
2018-05-23T12:30:01.005Z,35.48
2018-05-23T12:31:00.924Z,35.38
2018-05-23T12:32:00.836Z,35.88
2018-05-23T12:33:00.745Z,35.51
2018-05-23T12:34:00.666Z,34.64
2018-05-23T12:35:00.578Z,34.81
2018-05-23T12:36:00.486Z,35.22
2018-05-23T12:37:00.411Z,35.22
2018-05-23T12:38:00.322Z,33.96
2018-05-23T12:39:00.225Z,33.38
2018-05-23T12:40:00.147Z,33.17
2018-05-23T12:41:00.081Z,33.84
2018-05-23T12:41:59.965Z,33.44
2018-05-23T12:42:59.875Z,34.51
2018-05-23T12:43:59.797Z,33.54
2018-05-23T12:44:59.705Z,34.11
2018-05-23T12:45:59.615Z,34.89
2018-05-23T12:46:59.525Z,34.61
2018-05-23T12:47:59.445Z,35.09
2018-05-23T12:48:59.355Z,33.83
2018-05-23T12:49:59.302Z,34.33
2018-05-23T12:50:59.185Z,34.53